Time;durP1;ratioP1;P1;durP2;ratioP2;P2;SDS_P1;SDS_P2;PMS_P1;PMS_P2;Temp;Humidity;BMP_temperature;BMP_pressure;BME280_temperature;BME280_humidity;BME280_pressure;Samples;Min_cycle;Max_cycle;Signal;HPM_P1;HPM_P2
2023/01/09 00:00:50;;;;;;;12.77;11.57;;;6.90;99.90;;;7.51;100.00;96266.66;5219835;28;20294;-61
2023/01/09 00:03:25;;;;;;;12.47;11.23;;;6.90;99.90;;;7.46;100.00;96256.28;5222747;28;20641;-61
2023/01/09 00:05:58;;;;;;;13.17;11.87;;;6.80;99.90;;;7.38;100.00;96250.91;5221890;28;20618;-63
2023/01/09 00:08:31;;;;;;;13.10;11.87;;;6.90;99.90;;;7.29;100.00;96245.41;5222555;28;20244;-63
2023/01/09 00:11:05;;;;;;;11.70;10.60;;;6.80;99.90;;;7.43;100.00;96253.63;5221043;28;20229;-61
2023/01/09 00:13:38;;;;;;;12.40;11.20;;;6.90;99.90;;;7.38;100.00;96250.00;5219845;28;20312;-61
2023/01/09 00:16:11;;;;;;;12.07;10.97;;;6.90;99.90;;;7.36;100.00;96241.47;5217897;28;20208;-61
2023/01/09 00:18:46;;;;;;;10.67;9.67;;;6.80;99.90;;;7.34;100.00;96243.06;5222866;28;20205;-61
2023/01/09 00:21:20;;;;;;;10.97;9.97;;;6.80;99.90;;;7.38;100.00;96229.69;5222208;28;20196;-62
2023/01/09 00:23:54;;;;;;;11.57;10.47;;;6.80;99.90;;;7.37;100.00;96231.34;5220471;28;20320;-62
2023/01/09 00:26:27;;;;;;;12.53;11.33;;;6.80;99.90;;;7.36;100.00;96236.38;5222486;28;20220;-62
2023/01/09 00:29:00;;;;;;;11.80;10.67;;;6.80;99.90;;;7.34;100.00;96238.84;5217534;28;20324;-62
2023/01/09 00:31:33;;;;;;;12.30;11.10;;;6.80;99.90;;;7.32;100.00;96234.50;5222327;28;20702;-62
2023/01/09 00:34:10;;;;;;;12.90;11.60;;;6.80;99.90;;;7.23;100.00;96225.69;5220067;28;20248;-62
2023/01/09 00:36:43;;;;;;;11.40;10.30;;;6.70;99.90;;;7.26;100.00;96224.06;5222636;28;20288;-62
2023/01/09 00:39:16;;;;;;;11.23;10.23;;;6.70;99.90;;;7.25;100.00;96232.50;5221678;28;20316;-62
2023/01/09 00:41:54;;;;;;;13.20;11.80;;;6.70;99.90;;;7.28;100.00;96232.66;5224538;28;20238;-62
2023/01/09 00:44:33;;;;;;;11.63;10.47;;;6.70;99.90;;;7.29;100.00;96231.84;5212640;28;20577;-62
2023/01/09 00:47:12;;;;;;;12.33;10.90;;;6.70;99.90;;;7.30;100.00;96231.06;5216210;28;20200;-63
2023/01/09 00:49:47;;;;;;;11.33;10.23;;;6.70;99.90;;;7.29;100.00;96229.28;5212471;28;20308;-63
2023/01/09 00:52:22;;;;;;;10.10;9.10;;;6.70;99.90;;;7.30;100.00;96231.06;5216986;28;20689;-61
2023/01/09 00:54:55;;;;;;;8.63;7.87;;;6.70;99.90;;;7.31;100.00;96232.78;5213499;28;20236;-61
2023/01/09 00:57:28;;;;;;;8.33;7.53;;;6.80;99.90;;;7.42;100.00;96221.41;5218595;28;20204;-63
2023/01/09 01:00:02;;;;;;;7.27;6.57;;;6.80;99.90;;;7.42;100.00;96224.81;5222125;28;20209;-61
2023/01/09 01:02:35;;;;;;;5.43;4.90;;;6.80;99.90;;;7.52;100.00;96217.56;5221219;28;20304;-60
2023/01/09 01:08:00;;;;;;;4.03;3.73;;;6.90;99.90;;;7.47;100.00;96219.94;5212450;28;20237;-63
2023/01/09 01:10:33;;;;;;;4.17;3.87;;;6.90;99.90;;;7.45;100.00;96221.53;5219563;28;20240;-62
2023/01/09 01:13:07;;;;;;;4.07;3.77;;;6.90;99.90;;;7.36;100.00;96211.84;5220326;28;20756;-63
2023/01/09 01:15:40;;;;;;;4.00;3.77;;;6.90;99.90;;;7.43;100.00;96212.97;5217443;28;20209;-63
2023/01/09 01:18:14;;;;;;;4.13;3.83;;;6.90;99.90;;;7.48;100.00;96215.72;5219776;28;20193;-60
2023/01/09 01:20:49;;;;;;;4.07;3.77;;;6.90;99.90;;;7.47;100.00;96213.94;5217156;28;20774;-63
2023/01/09 01:23:22;;;;;;;5.00;4.53;;;6.90;99.90;;;7.49;100.00;96213.22;5218255;28;20258;-63
2023/01/09 01:25:55;;;;;;;3.90;3.70;;;6.90;99.90;;;7.51;100.00;96211.63;5218858;28;20206;-63
2023/01/09 01:28:28;;;;;;;4.60;4.20;;;6.90;99.90;;;7.52;100.00;96213.34;5218661;28;20308;-61
2023/01/09 01:31:01;;;;;;;4.30;4.00;;;6.90;99.90;;;7.52;100.00;96215.88;5215778;28;20300;-63
2023/01/09 01:33:35;;;;;;;7.77;7.07;;;7.00;99.90;;;7.53;100.00;96220.19;5214651;28;20217;-63
2023/01/09 01:36:10;;;;;;;7.93;7.13;;;6.90;99.90;;;7.51;100.00;96216.69;5217557;28;20194;-63
2023/01/09 01:38:45;;;;;;;8.10;7.30;;;6.90;99.90;;;7.53;100.00;96219.31;5218543;28;20239;-63
2023/01/09 01:41:28;;;;;;;9.60;8.70;;;6.90;99.90;;;7.48;100.00;96221.66;5214254;28;20204;-63
2023/01/09 01:44:05;;;;;;;9.63;8.63;;;6.80;99.90;;;7.46;100.00;96228.34;5217628;28;20227;-61
2023/01/09 01:46:38;;;;;;;9.30;8.40;;;6.90;99.90;;;7.42;100.00;96223.94;5221769;28;20219;-63
2023/01/09 01:49:19;;;;;;;8.90;8.00;;;6.80;99.90;;;7.43;100.00;96228.22;5221782;28;20248;-62
2023/01/09 01:51:54;;;;;;;8.40;7.63;;;6.80;99.90;;;7.42;100.00;96229.03;5219731;28;20600;-60
2023/01/09 01:54:30;;;;;;;8.97;8.07;;;6.80;99.90;;;7.35;100.00;96225.31;5221670;28;20609;-61
2023/01/09 01:57:04;;;;;;;8.67;7.77;;;6.70;99.90;;;7.36;100.00;96213.53;5217671;28;20201;-63
2023/01/09 01:59:41;;;;;;;7.68;7.07;;;6.80;99.90;;;7.36;100.00;96221.16;5219354;28;20295;-62
2023/01/09 02:02:15;;;;;;;7.67;6.97;;;6.80;99.90;;;7.32;100.00;96220.13;5218184;28;20311;-62
2023/01/09 02:04:50;;;;;;;7.00;6.30;;;6.70;99.90;;;7.27;100.00;96223.25;5220363;28;20229;-62
2023/01/09 02:07:25;;;;;;;6.17;5.63;;;6.70;99.90;;;7.30;100.00;96220.88;5216766;28;20291;-62
2023/01/09 02:09:59;;;;;;;6.50;6.00;;;6.70;99.90;;;7.29;100.00;96229.28;5216610;28;20363;-62
2023/01/09 02:12:32;;;;;;;6.47;5.90;;;6.70;99.90;;;7.28;100.00;96225.03;5217874;28;20488;-62
2023/01/09 02:15:09;;;;;;;6.53;6.03;;;6.70;99.90;;;7.30;100.00;96225.97;5220974;28;20915;-62
2023/01/09 02:18:10;;;;;;;5.80;5.17;;;6.80;99.90;;;7.34;100.00;96238.84;5217017;28;20196;-63
2023/01/09 02:20:52;;;;;;;6.13;5.53;;;6.80;99.90;;;7.39;100.00;96221.28;5218956;28;20594;-60
2023/01/09 02:24:07;;;;;;;6.83;6.23;;;6.70;99.90;;;7.31;100.00;96212.44;5219866;28;20323;-63
2023/01/09 02:27:07;;;;;;;6.90;6.20;;;6.70;99.90;;;7.33;100.00;96213.38;5219456;28;20740;-63
2023/01/09 02:30:36;;;;;;;5.50;5.00;;;6.70;99.90;;;7.31;100.00;96197.19;5216367;28;20248;-61
2023/01/09 02:33:26;;;;;;;5.40;4.90;;;6.70;99.90;;;7.22;100.00;96203.63;5202945;28;20624;-62
2023/01/09 02:36:13;;;;;;;5.00;4.60;;;6.70;99.90;;;7.24;100.00;96201.16;5216671;28;20598;-62
2023/01/09 02:39:03;;;;;;;4.67;4.00;;;6.60;99.90;;;7.21;100.00;96206.97;5218228;28;20200;-62
2023/01/09 02:41:43;;;;;;;4.07;3.77;;;6.70;99.90;;;7.27;100.00;96210.56;5219864;28;20231;-62
2023/01/09 02:44:23;;;;;;;3.43;3.23;;;6.80;99.90;;;7.32;100.00;96206.56;5219688;28;20203;-62
2023/01/09 02:47:35;;;;;;;3.13;2.93;;;6.80;99.90;;;7.37;100.00;96220.31;5218749;28;20193;-62
2023/01/09 02:50:16;;;;;;;5.40;4.90;;;6.80;99.90;;;7.40;100.00;96217.91;5217056;28;20217;-62
2023/01/09 02:53:09;;;;;;;7.63;6.90;;;6.80;99.90;;;7.40;100.00;96206.06;5218457;28;20603;-63
2023/01/09 02:55:58;;;;;;;10.10;7.67;;;6.80;99.90;;;7.40;100.00;96213.69;5215335;28;20296;-62
2023/01/09 02:58:54;;;;;;;7.10;6.40;;;6.80;99.90;;;7.36;100.00;96213.53;5220215;28;20201;-63
2023/01/09 03:01:36;;;;;;;8.27;7.47;;;6.80;99.90;;;7.32;100.00;96207.41;5221086;28;20671;-63
2023/01/09 03:04:20;;;;;;;8.43;6.90;;;6.80;99.90;;;7.31;100.00;96223.47;5217504;28;20295;-62
2023/01/09 03:07:01;;;;;;;7.97;6.27;;;6.70;99.90;;;7.27;100.00;96226.69;5223633;28;20216;-63
2023/01/09 03:09:37;;;;;;;6.63;5.63;;;6.70;99.90;;;7.33;100.00;96221.00;5209284;28;20223;-62
2023/01/09 03:12:16;;;;;;;5.20;4.80;;;6.70;99.90;;;7.29;100.00;96220.00;5215096;28;20656;-63
2023/01/09 03:14:53;;;;;;;4.10;3.80;;;6.70;99.90;;;7.34;100.00;96230.38;5222250;28;20197;-63
2023/01/09 03:17:30;;;;;;;3.30;3.10;;;6.70;99.90;;;7.29;100.00;96239.47;5219943;28;20201;-63
2023/01/09 03:20:09;;;;;;;3.13;2.97;;;6.70;99.90;;;7.40;100.00;96245.88;5221279;28;20756;-62
2023/01/09 03:22:53;;;;;;;3.20;3.00;;;6.80;99.90;;;7.51;100.00;96242.13;5216339;28;20237;-62
2023/01/09 03:25:28;;;;;;;2.97;2.83;;;6.90;99.90;;;7.65;100.00;96256.28;5219459;28;20206;-63
2023/01/09 03:28:04;;;;;;;3.03;2.83;;;7.00;99.90;;;7.58;100.00;96256.84;5221774;28;20208;-62
2023/01/09 03:30:37;;;;;;;3.30;3.00;;;6.90;99.90;;;7.57;100.00;96250.00;5218774;28;20205;-62
2023/01/09 03:33:10;;;;;;;2.87;2.77;;;6.90;99.90;;;7.63;100.00;96268.03;5219608;28;20221;-62
2023/01/09 03:35:45;;;;;;;2.13;2.03;;;6.90;99.90;;;7.68;100.00;96258.94;5215722;28;20232;-62
2023/01/09 03:38:18;;;;;;;2.07;1.97;;;7.00;99.90;;;7.80;100.00;96260.25;5224731;28;20204;-62
2023/01/09 03:40:51;;;;;;;2.63;2.40;;;7.10;99.90;;;7.83;100.00;96270.56;5220921;28;20200;-62
2023/01/09 03:43:24;;;;;;;1.90;1.80;;;7.10;99.90;;;7.66;100.00;96278.34;5218573;28;20221;-62
2023/01/09 03:45:58;;;;;;;2.70;2.60;;;7.10;99.90;;;7.70;100.00;96265.75;5218812;28;20191;-62
2023/01/09 03:48:31;;;;;;;2.30;2.20;;;7.10;99.90;;;7.73;100.00;96268.47;5221553;28;20201;-62
2023/01/09 03:51:06;;;;;;;2.07;1.97;;;7.10;99.90;;;7.60;100.00;96273.00;5214978;28;20236;-60
2023/01/09 03:53:39;;;;;;;2.23;2.13;;;7.10;99.90;;;7.67;100.00;96276.69;5220034;28;20224;-62
2023/01/09 03:56:12;;;;;;;2.00;1.90;;;7.10;99.90;;;7.80;100.00;96281.47;5221494;28;20726;-62
2023/01/09 03:58:45;;;;;;;2.00;2.00;;;7.20;99.90;;;7.78;100.00;96292.38;5221973;28;20232;-61
2023/01/09 04:01:18;;;;;;;1.90;1.90;;;7.30;99.90;;;7.71;100.00;96305.66;5222268;28;20286;-61
2023/01/09 04:03:51;;;;;;;1.90;1.80;;;7.30;99.90;;;7.67;100.00;96310.63;5221897;28;20639;-63
2023/01/09 04:06:25;;;;;;;1.70;1.70;;;7.20;99.90;;;7.64;100.00;96305.41;5221213;28;20279;-62
2023/01/09 04:08:58;;;;;;;1.90;1.80;;;7.20;99.90;;;7.52;100.00;96315.03;5222715;28;20204;-63
2023/01/09 04:11:31;;;;;;;2.20;2.10;;;7.10;99.90;;;7.39;100.00;96320.38;5221799;28;20225;-63
2023/01/09 04:14:04;;;;;;;1.87;1.80;;;7.00;99.90;;;7.37;100.00;96324.53;5219059;28;20333;-62
2023/01/09 04:16:37;;;;;;;2.10;2.00;;;6.90;99.90;;;7.39;100.00;96344.13;5220568;28;20292;-62
2023/01/09 04:19:11;;;;;;;2.00;2.00;;;7.00;99.90;;;7.48;100.00;96347.88;5224367;28;20232;-63
2023/01/09 04:21:45;;;;;;;2.00;1.90;;;6.90;99.90;;;7.59;100.00;96352.63;5219750;28;20292;-63
2023/01/09 04:24:18;;;;;;;1.80;1.70;;;7.10;99.90;;;7.59;100.00;96370.44;5214926;28;20203;-62
2023/01/09 04:26:51;;;;;;;1.80;1.80;;;7.10;99.90;;;7.51;100.00;96388.69;5219696;28;20205;-63
2023/01/09 04:29:24;;;;;;;1.50;1.50;;;7.00;99.90;;;7.52;100.00;96398.91;5224466;28;20662;-62
2023/01/09 04:31:57;;;;;;;2.57;2.13;;;7.00;99.90;;;7.51;100.00;96402.28;5216264;28;20558;-63
2023/01/09 04:34:30;;;;;;;2.20;2.10;;;7.00;99.90;;;7.60;100.00;96394.19;5216166;28;20267;-63
2023/01/09 04:37:05;;;;;;;2.07;1.97;;;7.00;99.90;;;7.55;100.00;96393.97;5221725;28;20221;-63
2023/01/09 04:39:39;;;;;;;2.30;2.20;;;7.00;99.90;;;7.55;100.00;96396.50;5219962;28;20205;-63
2023/01/09 04:42:13;;;;;;;2.30;2.10;;;7.00;99.90;;;7.64;100.00;96391.84;5222967;28;20220;-63
2023/01/09 04:44:46;;;;;;;1.90;1.90;;;7.00;99.90;;;7.59;100.00;96408.56;5216361;28;20225;-63
2023/01/09 04:47:19;;;;;;;2.20;2.10;;;7.00;99.90;;;7.60;100.00;96420.47;5215573;28;20225;-63
2023/01/09 04:49:52;;;;;;;2.10;1.90;;;7.00;99.90;;;7.36;100.00;96444.78;5212911;28;20312;-61
2023/01/09 04:52:28;;;;;;;2.33;2.23;;;6.90;99.90;;;7.27;100.00;96454.50;5215327;28;21144;-62
2023/01/09 04:55:01;;;;;;;2.23;2.17;;;6.90;99.90;;;7.30;100.00;96459.75;5222381;28;20204;-64
2023/01/09 04:57:34;;;;;;;2.00;2.00;;;6.80;99.90;;;7.34;100.00;96480.28;5211996;28;20295;-64
2023/01/09 05:00:11;;;;;;;1.90;1.83;;;6.80;99.90;;;7.36;100.00;96482.91;5212799;28;20846;-63
2023/01/09 05:02:44;;;;;;;1.53;1.53;;;6.80;99.90;;;7.37;100.00;96479.56;5219277;28;20912;-62
2023/01/09 05:05:17;;;;;;;1.73;1.73;;;6.80;99.90;;;7.32;100.00;96488.63;5221170;28;20193;-63
2023/01/09 05:07:51;;;;;;;1.80;1.70;;;6.80;99.90;;;7.24;100.00;96485.75;5214751;28;20740;-60
2023/01/09 05:10:24;;;;;;;1.80;1.80;;;6.70;99.90;;;7.13;100.00;96492.00;5207166;28;20228;-63
2023/01/09 05:12:57;;;;;;;1.60;1.50;;;6.60;99.90;;;7.09;100.00;96483.34;5223381;28;20771;-62
2023/01/09 05:15:30;;;;;;;1.83;1.73;;;6.60;99.90;;;7.13;100.00;96495.41;5223156;28;20211;-61
2023/01/09 05:18:03;;;;;;;1.27;1.27;;;6.60;99.90;;;7.01;100.00;96510.06;5215464;28;20620;-61
2023/01/09 05:20:37;;;;;;;1.67;1.67;;;6.50;99.90;;;7.02;100.00;96510.94;5214689;28;20224;-62
2023/01/09 05:23:11;;;;;;;1.73;1.63;;;6.50;99.90;;;6.87;100.00;96516.13;5219583;28;20231;-61
2023/01/09 05:25:44;;;;;;;1.60;1.60;;;6.40;99.90;;;6.68;100.00;96525.34;5215929;28;20687;-62
2023/01/09 05:28:17;;;;;;;2.10;1.80;;;6.30;99.90;;;6.69;100.00;96519.47;5219072;28;20200;-62
2023/01/09 05:30:50;;;;;;;1.63;1.63;;;6.20;99.90;;;6.61;100.00;96519.88;5219186;28;20229;-62
2023/01/09 05:33:23;;;;;;;1.50;1.50;;;6.10;99.90;;;6.53;100.00;96537.28;5218182;28;20304;-62
2023/01/09 05:35:56;;;;;;;1.50;1.50;;;6.10;99.90;;;6.46;100.00;96545.38;5212378;28;20292;-62
2023/01/09 05:38:31;;;;;;;1.90;1.80;;;6.00;99.90;;;6.44;100.00;96546.94;5218220;28;20288;-62
2023/01/09 05:41:04;;;;;;;1.47;1.47;;;6.00;99.90;;;6.45;100.00;96548.72;5214555;28;20225;-62
2023/01/09 05:43:37;;;;;;;1.87;1.83;;;6.00;99.90;;;6.56;100.00;96584.81;5224074;28;20223;-62
2023/01/09 05:46:10;;;;;;;1.70;1.60;;;6.00;99.90;;;6.48;100.00;96594.56;5220328;28;20699;-62
2023/01/09 05:48:44;;;;;;;3.27;2.00;;;6.00;99.90;;;6.53;100.00;96590.59;5220366;28;20209;-62
2023/01/09 05:51:17;;;;;;;2.40;2.20;;;6.00;99.90;;;6.50;100.00;96596.38;5221743;28;20213;-61
2023/01/09 05:53:51;;;;;;;3.00;2.73;;;6.00;99.90;;;6.44;100.00;96598.59;5219412;28;20319;-61
2023/01/09 05:56:25;;;;;;;2.90;2.70;;;6.00;99.90;;;6.45;100.00;96607.09;5219637;28;20211;-62
2023/01/09 05:58:58;;;;;;;2.00;1.90;;;6.00;99.90;;;6.50;100.00;96608.19;5221609;28;20201;-62
2023/01/09 06:01:31;;;;;;;1.97;1.63;;;6.00;99.90;;;6.51;100.00;96623.50;5218416;28;20687;-62
2023/01/09 06:04:04;;;;;;;2.20;2.10;;;6.00;99.90;;;6.52;100.00;96637.06;5220529;28;20291;-64
2023/01/09 06:06:38;;;;;;;3.13;2.60;;;6.00;99.90;;;6.53;100.00;96637.16;5216846;28;20665;-63
2023/01/09 06:09:13;;;;;;;2.87;2.67;;;6.00;99.90;;;6.54;100.00;96638.00;5220304;28;20668;-62
2023/01/09 06:11:46;;;;;;;2.90;2.60;;;6.00;99.90;;;6.53;100.00;96643.91;5217313;28;20315;-62
2023/01/09 06:14:19;;;;;;;2.20;2.00;;;6.00;99.90;;;6.49;100.00;96647.03;5220684;28;20292;-61
2023/01/09 06:16:52;;;;;;;1.90;1.80;;;5.90;99.90;;;6.47;100.00;96638.50;5219880;28;20300;-63
2023/01/09 06:19:25;;;;;;;2.00;1.93;;;5.90;99.90;;;6.40;100.00;96647.44;5221347;28;20240;-62
2023/01/09 06:21:58;;;;;;;2.57;2.37;;;5.90;99.90;;;6.42;100.00;96650.06;5218150;28;20205;-63
2023/01/09 06:24:32;;;;;;;3.07;1.60;;;5.80;99.90;;;6.37;100.00;96649.81;5220138;28;20201;-62
2023/01/09 06:27:06;;;;;;;1.77;1.67;;;5.70;99.90;;;6.33;100.00;96655.53;5222251;28;20240;-62
2023/01/09 06:29:39;;;;;;;1.73;1.47;;;5.70;99.90;;;6.12;100.00;96660.28;5221747;28;20215;-62
2023/01/09 06:32:12;;;;;;;2.00;1.87;;;5.60;99.90;;;6.10;100.00;96654.28;5223945;28;20235;-62
2023/01/09 06:34:45;;;;;;;1.70;1.70;;;5.50;99.90;;;6.15;100.00;96665.53;5220498;28;20217;-61
2023/01/09 06:37:18;;;;;;;2.10;2.00;;;5.60;99.90;;;6.14;100.00;96673.06;5217636;28;20213;-63
2023/01/09 06:39:53;;;;;;;2.23;2.13;;;5.60;99.90;;;6.13;100.00;96667.13;5220508;28;20232;-62
2023/01/09 06:42:26;;;;;;;2.10;2.00;;;5.50;99.90;;;6.08;100.00;96671.06;5217202;28;20220;-62
2023/01/09 06:44:59;;;;;;;2.07;1.97;;;5.50;99.90;;;6.00;100.00;96670.66;5218946;28;20673;-62
2023/01/09 06:47:32;;;;;;;2.37;2.03;;;5.50;99.90;;;5.99;100.00;96673.13;5219655;28;20287;-62
2023/01/09 06:50:08;;;;;;;2.90;2.70;;;5.40;99.90;;;6.00;100.00;96674.84;5223670;28;20243;-62
2023/01/09 06:52:41;;;;;;;2.60;2.10;;;5.30;99.90;;;6.04;100.00;96680.19;5224620;28;20224;-62
2023/01/09 06:55:16;;;;;;;2.30;2.10;;;5.40;99.90;;;5.94;100.00;96682.13;5223452;28;20295;-62
2023/01/09 06:57:49;;;;;;;2.03;1.93;;;5.40;99.90;;;5.86;100.00;96676.59;5226594;28;20213;-62
2023/01/09 07:00:23;;;;;;;2.00;1.90;;;5.30;99.90;;;5.83;100.00;96681.47;5226199;28;20665;-61
2023/01/09 07:02:56;;;;;;;2.03;1.93;;;5.30;99.90;;;5.84;100.00;96681.59;5224569;28;20307;-64
2023/01/09 07:05:29;;;;;;;2.00;1.80;;;5.30;99.90;;;5.73;100.00;96681.78;5224136;28;20292;-61
2023/01/09 07:08:03;;;;;;;2.40;2.20;;;5.20;99.90;;;5.77;100.00;96674.41;5223566;28;20225;-62
2023/01/09 07:10:37;;;;;;;3.50;3.20;;;5.20;99.90;;;5.71;100.00;96676.59;5229706;28;20209;-62
2023/01/09 07:13:10;;;;;;;2.97;2.70;;;5.10;99.90;;;5.67;100.00;96681.44;5225610;28;20567;-62
2023/01/09 07:15:43;;;;;;;3.23;3.00;;;5.10;99.90;;;5.70;100.00;96679.06;5223433;28;20237;-62
2023/01/09 07:18:16;;;;;;;3.03;2.73;;;5.20;99.90;;;5.70;100.00;96679.94;5222280;28;20201;-62
2023/01/09 07:20:49;;;;;;;3.57;3.27;;;5.20;99.90;;;5.70;100.00;96685.00;5219383;28;20205;-62
2023/01/09 07:23:22;;;;;;;2.80;2.60;;;5.20;99.90;;;5.74;100.00;96691.97;5223630;28;20312;-62
2023/01/09 07:25:57;;;;;;;3.37;3.17;;;5.20;99.90;;;5.72;100.00;96692.69;5228629;28;20413;-62
2023/01/09 07:28:30;;;;;;;3.00;2.80;;;5.20;99.90;;;5.75;100.00;96687.78;5217702;28;20205;-62
2023/01/09 07:31:03;;;;;;;2.97;2.87;;;5.20;99.90;;;5.77;100.00;96689.63;5222553;28;20233;-62
2023/01/09 07:33:36;;;;;;;2.50;2.30;;;5.20;99.90;;;5.81;100.00;96700.81;5221628;28;20325;-62
2023/01/09 07:36:10;;;;;;;2.73;2.53;;;5.20;99.90;;;5.88;100.00;96706.31;5223453;28;20201;-62
2023/01/09 07:38:43;;;;;;;2.30;2.20;;;5.30;99.90;;;5.99;100.00;96703.53;5223651;28;20310;-62
2023/01/09 07:41:17;;;;;;;2.57;2.27;;;5.30;99.90;;;5.95;100.00;96706.69;5223533;28;20710;-62
2023/01/09 07:43:50;;;;;;;2.20;1.93;;;5.30;99.90;;;5.96;100.00;96698.31;5222826;28;20292;-62
2023/01/09 07:46:23;;;;;;;2.57;2.30;;;5.30;99.90;;;6.12;100.00;96715.22;5223054;28;20235;-61
2023/01/09 07:48:56;;;;;;;2.50;2.40;;;5.40;99.90;;;6.20;100.00;96714.88;5222635;28;20228;-62
2023/01/09 07:51:29;;;;;;;3.07;2.07;;;5.50;99.90;;;6.27;100.00;96716.09;5222123;28;20264;-61
2023/01/09 07:54:02;;;;;;;2.03;1.77;;;5.60;99.90;;;6.27;100.00;96716.09;5217987;28;20653;-62
2023/01/09 07:56:37;;;;;;;2.93;2.17;;;5.70;99.90;;;6.38;100.00;96714.13;5215499;28;20696;-62
2023/01/09 07:59:10;;;;;;;2.43;2.07;;;5.80;99.90;;;6.42;100.00;96705.91;5214584;28;20197;-62
2023/01/09 08:01:43;;;;;;;2.03;1.90;;;5.90;99.90;;;6.38;100.00;96698.88;5221498;28;20612;-62
2023/01/09 08:04:16;;;;;;;2.27;2.10;;;6.00;99.90;;;6.26;100.00;96694.91;5222259;28;20212;-62
2023/01/09 08:06:49;;;;;;;2.60;2.40;;;5.80;99.90;;;6.27;100.00;96699.19;5221788;28;20304;-60
2023/01/09 08:09:22;;;;;;;2.50;2.30;;;5.80;99.90;;;6.32;100.00;96680.03;5222399;28;20296;-62
2023/01/09 08:11:57;;;;;;;2.87;2.00;;;5.80;99.90;;;6.37;100.00;96698.03;5217257;28;20651;-66
2023/01/09 08:14:30;;;;;;;2.97;1.93;;;5.80;99.90;;;6.36;100.00;96686.13;5220846;28;20291;-61
2023/01/09 08:17:03;;;;;;;1.93;1.70;;;5.90;99.90;;;6.41;100.00;96674.56;5225488;28;20264;-61
2023/01/09 08:19:36;;;;;;;2.20;2.10;;;5.90;99.90;;;6.40;100.00;96669.41;5220493;28;20672;-61
2023/01/09 08:22:09;;;;;;;1.77;1.67;;;5.90;99.90;;;6.35;100.00;96689.44;5226532;28;20221;-62
2023/01/09 08:24:42;;;;;;;2.87;2.00;;;5.90;99.90;;;6.50;100.00;96690.28;5223601;28;20569;-61
2023/01/09 08:27:17;;;;;;;2.70;2.10;;;6.00;99.90;;;6.40;100.00;96698.19;5225753;28;20220;-61
2023/01/09 08:29:50;;;;;;;3.23;2.20;;;6.00;99.90;;;6.41;100.00;96686.38;5221320;28;20200;-62
2023/01/09 08:32:23;;;;;;;2.10;1.93;;;6.00;99.90;;;6.43;100.00;96687.34;5222723;28;20222;-62
2023/01/09 08:34:56;;;;;;;3.00;2.00;;;6.00;99.90;;;6.44;100.00;96689.06;5219675;28;20197;-61
2023/01/09 08:37:29;;;;;;;3.20;1.90;;;6.10;99.90;;;6.48;100.00;96684.25;5223280;28;20637;-60
2023/01/09 08:40:02;;;;;;;3.33;1.87;;;6.00;99.90;;;6.47;100.00;96694.34;5221999;28;20321;-65
2023/01/09 08:48:18;;;;;;;2.27;2.03;;;5.90;99.90;;;6.37;100.00;96671.78;5222142;28;20205;-62
2023/01/09 08:50:52;;;;;;;2.23;2.03;;;5.90;99.90;;;6.39;100.00;96682.91;5223421;28;20209;-62
2023/01/09 08:53:25;;;;;;;5.13;2.20;;;5.90;99.90;;;6.34;99.36;96681.78;5222310;28;20597;-61
2023/01/09 08:55:59;;;;;;;2.37;1.73;;;6.00;99.90;;;6.40;100.00;96689.72;5221572;28;20296;-62
2023/01/09 08:58:33;;;;;;;2.30;2.10;;;6.00;99.90;;;6.46;100.00;96695.09;5220024;28;20233;-61
2023/01/09 09:01:07;;;;;;;2.60;2.40;;;6.00;99.90;;;6.39;100.00;96698.13;5219031;28;20196;-60
2023/01/09 09:03:40;;;;;;;3.40;2.40;;;6.00;99.90;;;6.36;100.00;96692.88;5214685;28;20307;-58
2023/01/09 09:06:13;;;;;;;2.80;1.90;;;6.00;99.90;;;6.48;100.00;96688.47;5221287;28;20209;-60
2023/01/09 09:08:46;;;;;;;2.87;2.50;;;6.00;99.90;;;6.43;100.00;96687.34;5212667;28;20287;-61
2023/01/09 09:11:19;;;;;;;2.53;2.33;;;6.00;99.90;;;6.49;100.00;96687.66;5220547;28;20279;-62
2023/01/09 09:13:54;;;;;;;3.43;2.23;;;6.00;99.90;;;6.52;100.00;96697.97;5219771;28;20235;-64
2023/01/09 09:16:27;;;;;;;3.27;2.33;;;6.10;99.90;;;6.55;100.00;96698.13;5217099;28;20295;-59
2023/01/09 09:19:00;;;;;;;2.87;2.30;;;6.10;99.90;;;6.57;100.00;96691.47;5213830;28;20213;-61
2023/01/09 09:21:33;;;;;;;3.83;2.67;;;6.10;99.90;;;6.58;100.00;96690.72;5216453;28;20209;-63
2023/01/09 09:24:06;;;;;;;5.77;2.53;;;6.10;99.90;;;6.64;100.00;96693.56;5218260;28;20346;-61
2023/01/09 09:26:40;;;;;;;2.90;2.10;;;6.00;99.90;;;6.61;100.00;96703.56;5225330;28;20209;-61
2023/01/09 09:29:16;;;;;;;2.37;2.17;;;6.10;99.90;;;6.77;100.00;96706.09;5220501;28;20789;-59
2023/01/09 09:31:49;;;;;;;3.27;2.80;;;6.20;99.90;;;6.91;100.00;96709.38;5220550;28;20300;-61
2023/01/09 09:34:23;;;;;;;3.03;2.67;;;6.40;99.90;;;7.25;99.38;96705.16;5221864;28;20209;-63
2023/01/09 09:36:56;;;;;;;3.77;2.80;;;6.70;99.90;;;7.40;98.42;96708.47;5221695;28;20248;-65
2023/01/09 09:39:29;;;;;;;3.27;2.50;;;6.80;99.90;;;7.48;97.07;96719.91;5218974;28;20202;-62
2023/01/09 09:45:37;;;;;;;2.20;2.00;;;7.10;99.90;;;7.63;93.11;96702.84;5213560;28;20197;-60
2023/01/09 09:48:26;;;;;;;3.43;2.40;;;7.10;99.90;;;7.71;95.28;96707.47;5217908;28;20212;-60
2023/01/09 09:51:26;;;;;;;4.90;2.30;;;7.20;99.90;;;7.66;94.78;96702.13;5217685;28;20284;-61
2023/01/09 09:54:02;;;;;;;3.33;2.27;;;7.20;99.90;;;7.88;92.19;96707.47;5217542;28;20600;-58
2023/01/09 09:56:47;;;;;;;3.07;2.30;;;7.40;99.90;;;7.98;91.00;96703.69;5219976;28;20316;-61
2023/01/09 09:59:24;;;;;;;4.00;2.77;;;7.50;99.90;;;8.05;91.43;96718.47;5219967;28;20236;-63
2023/01/09 10:02:05;;;;;;;4.40;2.40;;;7.60;99.90;;;8.09;88.61;96710.16;5220766;28;20193;-61
2023/01/09 10:04:45;;;;;;;2.33;1.83;;;7.70;99.90;;;8.07;89.88;96718.56;5218789;28;20213;-62
2023/01/09 10:07:23;;;;;;;3.57;2.20;;;7.70;99.90;;;8.09;87.44;96705.09;5217997;28;20247;-60
2023/01/09 10:10:03;;;;;;;2.83;2.60;;;7.60;99.90;;;8.22;86.43;96703.16;5219567;28;20205;-65
2023/01/09 10:12:45;;;;;;;2.97;2.33;;;7.80;99.90;;;8.15;87.38;96701.97;5217136;28;20235;-64
2023/01/09 10:15:24;;;;;;;3.30;2.00;;;7.80;99.90;;;8.11;86.43;96690.78;5220300;28;20211;-61
2023/01/09 10:18:17;;;;;;;4.07;1.97;;;7.80;99.90;;;8.07;85.53;96693.97;5218683;28;20201;-62
2023/01/09 10:20:58;;;;;;;5.33;2.13;;;7.70;99.90;;;8.03;85.47;96681.91;5220818;28;20288;-60
2023/01/09 10:24:12;;;;;;;2.77;2.20;;;7.70;99.90;;;7.98;85.67;96678.25;5219721;28;20236;-61
2023/01/09 10:26:48;;;;;;;2.40;2.00;;;7.60;99.90;;;8.01;84.96;96682.63;5215467;28;20208;-62
2023/01/09 10:29:44;;;;;;;2.43;1.90;;;7.60;99.90;;;7.98;84.34;96687.56;5221313;28;20258;-61
2023/01/09 10:32:55;;;;;;;2.23;1.77;;;7.70;99.90;;;8.04;84.84;96677.69;5214311;28;20262;-61
2023/01/09 10:35:51;;;;;;;2.77;2.10;;;7.70;99.90;;;7.98;86.71;96673.16;5206700;28;20205;-65
2023/01/09 10:38:30;;;;;;;2.77;2.27;;;7.80;99.90;;;8.02;85.69;96664.03;5221235;28;20938;-60
2023/01/09 10:41:10;;;;;;;4.57;2.20;;;7.70;99.90;;;8.12;84.67;96667.06;5220238;28;20597;-61
2023/01/09 10:43:49;;;;;;;4.87;2.30;;;7.80;99.90;;;8.13;84.88;96662.88;5216694;28;20213;-62
2023/01/09 10:46:28;;;;;;;5.90;2.30;;;7.80;99.90;;;8.23;85.22;96662.47;5218941;28;20280;-62
2023/01/09 10:49:04;;;;;;;3.63;2.27;;;7.80;99.90;;;8.36;85.06;96676.66;5218724;28;20236;-61
2023/01/09 10:51:47;;;;;;;3.23;2.10;;;7.90;99.90;;;8.48;83.34;96666.19;5219017;28;20641;-65
2023/01/09 10:54:22;;;;;;;2.88;2.13;;;8.00;99.90;;;8.55;82.25;96669.06;5219348;28;20213;-62
2023/01/09 10:57:00;;;;;;;3.28;2.00;;;8.10;99.90;;;8.62;81.16;96675.34;5221232;28;20228;-61
2023/01/09 10:59:33;;;;;;;4.23;2.30;;;8.10;99.90;;;8.59;81.18;96664.16;5215773;28;20284;-62
2023/01/09 11:02:26;;;;;;;3.77;2.20;;;8.20;99.90;;;8.40;80.44;96670.94;5211469;28;20252;-60
2023/01/09 11:04:59;;;;;;;4.37;2.00;;;8.10;99.90;;;8.55;80.91;96663.97;5212705;28;20197;-65
2023/01/09 11:07:37;;;;;;;3.57;2.20;;;8.00;99.90;;;8.52;81.26;96657.88;5216860;28;20209;-60
2023/01/09 11:10:14;;;;;;;3.60;2.17;;;8.10;99.90;;;8.59;81.14;96662.47;5215108;28;20208;-62
2023/01/09 11:12:47;;;;;;;3.40;2.20;;;8.00;99.90;;;8.55;81.83;96665.66;5216106;28;20266;-62
2023/01/09 11:15:31;;;;;;;3.00;1.93;;;8.00;99.90;;;8.55;81.21;96658.00;5217567;28;20209;-61